Ust'- Judoma, Russia
Current Conditions -  °F | °C
As of 7:00 AM on Friday 28 Nov 2014 (Local Time) from UEEE Reporting Station
Light Snow Light Snow  
Wind Chill: -20°   Ceiling: 10000
Heat Index: -20°   Visibility: 6mi
Dew Point: -27°   Wind: 2mph
Humidity: 69%   Direction: 300°WNW
Pressure: 30.06"   Gusts: NA
Location:  59.18°N, 135.15°E
Report Text: UEEE 272100Z 30001MPS 9999 -SN OVC100 M29/M33 Q1018 NOSIG RMKQFE754 23490150
Loading
Personal Weather Stations






























Interactive Weather Map New forecast layout! Learn more

10-Day Weather Forecast

Advertisements
Track Severe Weather on mobile